Time;durP1;ratioP1;P1;durP2;ratioP2;P2;SDS_P1;SDS_P2;PMS_P1;PMS_P2;Temp;Humidity;BMP_temperature;BMP_pressure;BME280_temperature;BME280_humidity;BME280_pressure;Samples;Min_cycle;Max_cycle;Signal;HPM_P1;HPM_P2
2022/10/23 00:02:04;;;;;;;;;;;;;;;10.68;100.00;96598.25;5053877;28;19950;-74
2022/10/23 00:04:30;;;;;;;;;;;;;;;10.64;100.00;96590.00;5044617;28;20444;-74
2022/10/23 00:06:56;;;;;;;;;;;;;;;10.63;100.00;96583.16;5052971;28;19963;-74
2022/10/23 00:09:23;;;;;;;;;;;;;;;10.61;100.00;96581.78;5053339;28;19950;-73
2022/10/23 00:11:50;;;;;;;;;;;;;;;10.59;100.00;96576.75;5053391;28;19952;-74
2022/10/23 00:14:17;;;;;;;;;;;;;;;10.56;100.00;96575.34;5052222;28;19968;-73
2022/10/23 00:16:43;;;;;;;;;;;;;;;10.56;100.00;96587.63;5043528;28;19981;-74
2022/10/23 00:19:09;;;;;;;;;;;;;;;10.53;100.00;96591.50;5053389;28;19959;-73
2022/10/23 00:21:34;;;;;;;;;;;;;;;10.51;100.00;96593.53;5053434;28;19986;-74
2022/10/23 00:24:00;;;;;;;;;;;;;;;10.50;100.00;96593.78;5048908;28;19986;-74
2022/10/23 00:26:26;;;;;;;;;;;;;;;10.47;100.00;96587.09;5052942;28;19960;-74
2022/10/23 00:28:52;;;;;;;;;;;;;;;10.45;100.00;96585.72;5052002;28;20053;-74
2022/10/23 00:31:20;;;;;;;;;;;;;;;10.42;100.00;96578.28;5053217;28;19956;-74
2022/10/23 00:33:46;;;;;;;;;;;;;;;10.39;100.00;96576.88;5053528;28;19988;-73
2022/10/23 00:36:13;;;;;;;;;;;;;;;10.36;100.00;96574.69;5053282;28;19969;-74
2022/10/23 00:38:39;;;;;;;;;;;;;;;10.35;100.00;96581.78;5045872;28;19965;-74
2022/10/23 00:41:05;;;;;;;;;;;;;;;10.36;100.00;96582.56;5053148;28;19957;-74
2022/10/23 00:43:32;;;;;;;;;;;;;;;10.34;100.00;96577.53;5051945;28;19965;-74
2022/10/23 00:45:58;;;;;;;;;;;;;;;10.34;100.00;96576.72;5052913;28;19950;-74
2022/10/23 00:48:27;;;;;;;;;;;;;;;10.34;100.00;96580.16;5052624;28;19978;-73
2022/10/23 00:50:53;;;;;;;;;;;;;;;10.33;100.00;96575.09;5053164;28;19967;-73
2022/10/23 00:53:20;;;;;;;;;;;;;;;10.33;100.00;96573.31;5053500;28;19948;-74
2022/10/23 00:55:47;;;;;;;;;;;;;;;10.33;100.00;96577.72;5053181;28;19960;-73
2022/10/23 00:58:13;;;;;;;;;;;;;;;10.31;100.00;96575.34;5051992;28;19948;-74
2022/10/23 01:00:42;;;;;;;;;;;;;;;10.31;100.00;96571.91;5052830;28;20433;-74
2022/10/23 01:03:08;;;;;;;;;;;;;;;10.30;100.00;96572.94;5052887;28;19981;-74
2022/10/23 01:05:42;;;;;;;;;;;;;;;10.26;100.00;96567.25;5053255;28;19986;-74
2022/10/23 01:08:31;;;;;;;;;;;;;;;10.23;100.00;96565.09;5049497;28;19951;-72
2022/10/23 01:11:01;;;;;;;;;;;;;;;10.23;100.00;96559.03;5046367;28;19950;-73
2022/10/23 01:13:27;;;;;;;;;;;;;;;10.21;100.00;96561.06;5056724;28;20339;-72
2022/10/23 01:16:05;;;;;;;;;;;;;;;10.19;100.00;96563.09;5056646;28;19964;-73
2022/10/23 01:18:37;;;;;;;;;;;;;;;10.19;100.00;96558.66;5053288;28;20432;-75
2022/10/23 01:21:16;;;;;;;;;;;;;;;10.17;100.00;96558.06;5044500;28;19957;-73
2022/10/23 01:23:57;;;;;;;;;;;;;;;10.16;100.00;96552.03;5055375;28;19968;-73
2022/10/23 01:26:29;;;;;;;;;;;;;;;10.15;100.00;96560.09;5055708;28;19958;-73
2022/10/23 01:29:00;;;;;;;;;;;;;;;10.13;100.00;96560.31;5056367;28;19957;-73
2022/10/23 01:31:43;;;;;;;;;;;;;;;10.12;100.00;96544.78;5056114;28;19971;-74
2022/10/23 01:34:13;;;;;;;;;;;;;;;10.10;100.00;96552.06;5056506;28;19972;-73
2022/10/23 01:36:40;;;;;;;;;;;;;;;10.08;100.00;96540.97;5053437;28;19983;-73
2022/10/23 01:39:08;;;;;;;;;;;;;;;10.08;100.00;96531.31;5056165;28;19941;-73
2022/10/23 01:41:42;;;;;;;;;;;;;;;10.07;100.00;96528.91;5056041;28;19953;-74
2022/10/23 01:44:13;;;;;;;;;;;;;;;10.08;100.00;96530.50;5055156;28;19962;-74
2022/10/23 01:46:40;;;;;;;;;;;;;;;10.07;100.00;96534.16;5056384;28;20022;-73
2022/10/23 01:49:08;;;;;;;;;;;;;;;10.07;100.00;96536.78;5054749;28;20435;-73
2022/10/23 01:51:36;;;;;;;;;;;;;;;10.06;100.00;96540.41;5054031;28;20348;-73
2022/10/23 01:54:04;;;;;;;;;;;;;;;10.05;100.00;96533.56;5048622;28;19961;-73
2022/10/23 01:56:32;;;;;;;;;;;;;;;10.03;100.00;96538.19;5055940;28;19954;-73
2022/10/23 01:59:01;;;;;;;;;;;;;;;10.02;100.00;96536.63;5055729;28;19963;-73
2022/10/23 02:01:29;;;;;;;;;;;;;;;10.07;100.00;96519.22;5055299;28;19959;-82
2022/10/23 02:03:56;;;;;;;;;;;;;;;10.12;100.00;96505.47;5050329;28;19974;-73
2022/10/23 02:06:22;;;;;;;;;;;;;;;10.11;100.00;96523.03;5054788;28;20435;-73
2022/10/23 02:08:48;;;;;;;;;;;;;;;10.07;100.00;96515.81;5055540;28;20046;-73
2022/10/23 02:11:16;;;;;;;;;;;;;;;10.05;100.00;96517.84;5055687;28;19958;-72
2022/10/23 02:13:54;;;;;;;;;;;;;;;10.01;100.00;96509.59;5054571;28;20322;-73
2022/10/23 02:16:29;;;;;;;;;;;;;;;9.97;100.00;96508.41;5055696;28;19954;-73
2022/10/23 02:19:13;;;;;;;;;;;;;;;9.95;100.00;96499.97;5055432;28;19963;-73
2022/10/23 02:21:42;;;;;;;;;;;;;;;9.93;100.00;96500.19;5054719;28;19952;-82
2022/10/23 02:24:10;;;;;;;;;;;;;;;9.90;100.00;96495.34;5050111;28;19988;-73
2022/10/23 02:26:59;;;;;;;;;;;;;;;9.89;100.00;96492.94;5055363;28;19952;-73
2022/10/23 02:30:03;;;;;;;;;;;;;;;9.87;100.00;96497.59;5046784;28;20427;-73
2022/10/23 02:32:29;;;;;;;;;;;;;;;9.84;100.00;96487.56;4972793;28;19986;-72
2022/10/23 02:34:55;;;;;;;;;;;;;;;9.81;100.00;96478.31;4964531;28;19971;-73
2022/10/23 02:37:21;;;;;;;;;;;;;;;9.81;100.00;96480.13;5010635;28;19957;-73
2022/10/23 02:39:48;;;;;;;;;;;;;;;9.79;100.00;96474.28;5055334;28;20407;-73
2022/10/23 02:42:20;;;;;;;;;;;;;;;9.77;100.00;96474.50;5054268;28;19960;-73
2022/10/23 02:44:58;;;;;;;;;;;;;;;9.75;100.00;96460.81;5055299;28;20431;-73
2022/10/23 02:47:27;;;;;;;;;;;;;;;9.73;100.00;96466.25;5053848;28;20354;-73
2022/10/23 02:49:53;;;;;;;;;;;;;;;9.72;100.00;96456.00;5054925;28;19966;-73
2022/10/23 02:52:34;;;;;;;;;;;;;;;9.70;100.00;96450.97;5050004;28;19975;-73
2022/10/23 02:55:06;;;;;;;;;;;;;;;9.68;100.00;96450.38;5050219;28;19958;-73
2022/10/23 02:57:38;;;;;;;;;;;;;;;9.69;100.00;96459.03;5053589;28;19950;-73
2022/10/23 03:00:07;;;;;;;;;;;;;;;9.68;100.00;96465.28;5054632;28;19977;-75
2022/10/23 03:02:32;;;;;;;;;;;;;;;9.70;100.00;96463.25;5054282;28;19959;-73
2022/10/23 03:04:59;;;;;;;;;;;;;;;9.70;100.00;96460.63;5061242;23;19966;-73
2022/10/23 03:07:25;;;;;;;;;;;;;;;9.68;100.00;96463.47;5084887;28;19954;-74
2022/10/23 03:09:51;;;;;;;;;;;;;;;9.67;100.00;96468.94;5086169;28;19947;-73
2022/10/23 03:12:17;;;;;;;;;;;;;;;9.68;100.00;96468.72;5083363;28;19979;-73
2022/10/23 03:14:43;;;;;;;;;;;;;;;9.67;100.00;96458.44;5082962;28;19998;-73
2022/10/23 03:17:09;;;;;;;;;;;;;;;9.67;100.00;96466.31;5086241;28;19957;-76
2022/10/23 03:19:35;;;;;;;;;;;;;;;9.65;100.00;96460.47;5086905;28;19955;-73
2022/10/23 03:22:01;;;;;;;;;;;;;;;9.62;100.00;96464.31;5087175;28;20046;-74
2022/10/23 03:24:27;;;;;;;;;;;;;;;9.62;100.00;96459.09;5085925;28;20005;-73
2022/10/23 03:26:52;;;;;;;;;;;;;;;9.62;100.00;96451.22;5067228;28;19954;-73
2022/10/23 03:29:18;;;;;;;;;;;;;;;9.63;100.00;96449.41;5083956;28;20362;-73
2022/10/23 03:31:44;;;;;;;;;;;;;;;9.64;100.00;96453.63;5086325;28;19950;-73
2022/10/23 03:34:10;;;;;;;;;;;;;;;9.63;100.00;96447.59;5084059;28;20378;-73
2022/10/23 03:36:36;;;;;;;;;;;;;;;9.63;100.00;96447.59;5079487;28;19981;-73
2022/10/23 03:39:03;;;;;;;;;;;;;;;9.63;100.00;96449.41;5080202;28;19953;-73
2022/10/23 03:41:29;;;;;;;;;;;;;;;9.61;100.00;96444.38;5089242;28;19946;-73
2022/10/23 03:43:55;;;;;;;;;;;;;;;9.61;100.00;96444.38;5086593;28;19961;-73
2022/10/23 03:46:21;;;;;;;;;;;;;;;9.60;100.00;96445.41;5064115;28;20489;-74
2022/10/23 03:48:46;;;;;;;;;;;;;;;9.58;100.00;96434.34;5088131;28;20037;-73
2022/10/23 03:51:12;;;;;;;;;;;;;;;9.57;100.00;96440.56;5080924;28;20011;-73
2022/10/23 03:53:38;;;;;;;;;;;;;;;9.61;100.00;96439.16;5074317;28;19956;-74
2022/10/23 03:56:04;;;;;;;;;;;;;;;9.66;100.00;96443.75;5089269;28;20017;-73
2022/10/23 03:58:30;;;;;;;;;;;;;;;9.65;100.00;96436.91;5072852;28;20085;-73
2022/10/23 04:00:56;;;;;;;;;;;;;;;9.63;100.00;96439.72;5082873;28;19958;-74
2022/10/23 04:03:22;;;;;;;;;;;;;;;9.61;100.00;96435.72;5090208;28;19968;-73
2022/10/23 04:05:48;;;;;;;;;;;;;;;9.56;100.00;96441.59;5065635;28;20011;-73
2022/10/23 04:08:14;;;;;;;;;;;;;;;9.53;100.00;96453.31;5076494;28;20010;-73
2022/10/23 04:10:40;;;;;;;;;;;;;;;9.52;100.00;96456.13;5087064;28;19954;-73
2022/10/23 04:13:05;;;;;;;;;;;;;;;9.50;100.00;96447.69;5085638;28;19950;-73
2022/10/23 04:15:31;;;;;;;;;;;;;;;9.46;100.00;96446.50;5081925;28;20376;-73
2022/10/23 04:17:57;;;;;;;;;;;;;;;9.44;100.00;96454.56;5080831;28;20016;-73
2022/10/23 04:20:23;;;;;;;;;;;;;;;9.42;100.00;96451.34;5089625;28;19961;-74
2022/10/23 04:22:49;;;;;;;;;;;;;;;9.42;100.00;96446.09;5076190;28;19961;-74
2022/10/23 04:25:15;;;;;;;;;;;;;;;9.41;100.00;96444.50;5083432;28;20055;-74
2022/10/23 04:27:41;;;;;;;;;;;;;;;9.40;100.00;96445.50;5082611;28;19957;-73
2022/10/23 04:30:07;;;;;;;;;;;;;;;9.41;100.00;96435.84;5081579;28;20425;-73
2022/10/23 04:32:33;;;;;;;;;;;;;;;9.40;100.00;96437.66;5083341;28;20312;-73
2022/10/23 04:34:59;;;;;;;;;;;;;;;9.41;100.00;96435.84;5078546;28;20315;-73
2022/10/23 04:37:26;;;;;;;;;;;;;;;9.42;100.00;96434.84;5081163;28;19997;-73
2022/10/23 04:39:52;;;;;;;;;;;;;;;9.43;100.00;96433.81;5088069;28;21292;-74
2022/10/23 04:42:19;;;;;;;;;;;;;;;9.43;100.00;96428.56;5081099;28;19984;-74
2022/10/23 04:44:44;;;;;;;;;;;;;;;9.43;100.00;96439.03;5095844;28;19962;-74
2022/10/23 04:47:10;;;;;;;;;;;;;;;9.43;100.00;96445.09;5086603;28;20021;-74
2022/10/23 04:49:36;;;;;;;;;;;;;;;9.43;100.00;96449.50;5088060;28;19956;-73
2022/10/23 04:52:02;;;;;;;;;;;;;;;9.40;100.00;96448.13;5083406;28;19990;-74
2022/10/23 04:54:28;;;;;;;;;;;;;;;9.42;100.00;96451.34;5072012;28;19979;-74
2022/10/23 04:56:54;;;;;;;;;;;;;;;9.40;100.00;96442.09;5085958;28;19946;-74
2022/10/23 04:59:20;;;;;;;;;;;;;;;9.38;100.00;96441.50;5085916;28;19957;-74
2022/10/23 05:01:45;;;;;;;;;;;;;;;9.38;100.00;96439.69;5089502;28;19969;-74
2022/10/23 05:04:12;;;;;;;;;;;;;;;9.37;100.00;96437.31;5067681;28;20465;-74
2022/10/23 05:06:38;;;;;;;;;;;;;;;9.37;100.00;96432.06;5083917;28;20047;-74
2022/10/23 05:09:04;;;;;;;;;;;;;;;9.37;100.00;96437.31;5086188;28;20057;-74
2022/10/23 05:11:30;;;;;;;;;;;;;;;9.37;100.00;96437.31;5090034;28;20008;-74
2022/10/23 05:13:56;;;;;;;;;;;;;;;9.38;100.00;96436.28;5089978;28;19961;-74
2022/10/23 05:16:40;;;;;;;;;;;;;;;9.39;100.00;96438.69;5084219;28;20051;-74
2022/10/23 05:19:08;;;;;;;;;;;;;;;9.39;100.00;96425.59;5084769;28;19949;-74
2022/10/23 05:21:36;;;;;;;;;;;;;;;9.38;100.00;96429.22;5087205;28;19959;-75
2022/10/23 05:24:02;;;;;;;;;;;;;;;9.39;100.00;96425.59;5088224;28;19960;-74
2022/10/23 05:26:29;;;;;;;;;;;;;;;9.40;100.00;96414.09;5087398;28;20440;-73
2022/10/23 05:28:55;;;;;;;;;;;;;;;9.38;100.00;96417.94;5085186;28;19953;-74
2022/10/23 05:31:23;;;;;;;;;;;;;;;9.38;100.00;96410.91;5085509;28;19981;-74
2022/10/23 05:33:49;;;;;;;;;;;;;;;9.39;100.00;96420.38;5068610;28;19975;-74
2022/10/23 05:36:15;;;;;;;;;;;;;;;9.41;100.00;96409.66;5082672;28;19957;-74
2022/10/23 05:38:41;;;;;;;;;;;;;;;9.44;100.00;96419.72;5087985;28;19978;-73
2022/10/23 05:41:07;;;;;;;;;;;;;;;9.45;100.00;96414.28;5092365;28;19956;-75
2022/10/23 05:43:33;;;;;;;;;;;;;;;9.46;100.00;96410.66;5074125;28;19970;-73
2022/10/23 05:46:03;;;;;;;;;;;;;;;9.46;100.00;96405.41;5083454;28;19977;-74
2022/10/23 05:48:28;;;;;;;;;;;;;;;9.47;100.00;96396.56;5091243;28;20394;-74
2022/10/23 05:50:54;;;;;;;;;;;;;;;9.51;100.00;96395.13;5053191;28;20007;-74
2022/10/23 05:53:20;;;;;;;;;;;;;;;9.53;100.00;96384.41;5062722;28;20474;-74
2022/10/23 05:55:46;;;;;;;;;;;;;;;9.52;100.00;96388.84;5087254;28;20414;-74
2022/10/23 05:58:12;;;;;;;;;;;;;;;9.53;100.00;96395.72;5088159;28;20251;-75
2022/10/23 06:00:38;;;;;;;;;;;;;;;9.52;100.00;96394.09;5081762;28;19957;-74
2022/10/23 06:03:03;;;;;;;;;;;;;;;9.53;100.00;96394.88;5087969;28;20362;-73
2022/10/23 06:05:29;;;;;;;;;;;;;;;9.51;100.00;96392.50;5084013;28;20027;-74
2022/10/23 06:07:56;;;;;;;;;;;;;;;9.51;100.00;96394.31;5080691;28;19984;-73
2022/10/23 06:10:22;;;;;;;;;;;;;;;9.50;100.00;96398.75;5079346;28;19964;-74
2022/10/23 06:12:47;;;;;;;;;;;;;;;9.51;100.00;96402.16;5087478;28;19958;-75
2022/10/23 06:15:13;;;;;;;;;;;;;;;9.50;100.00;96398.75;5085213;28;19999;-74
2022/10/23 06:17:39;;;;;;;;;;;;;;;9.49;100.00;96398.94;5081753;28;19957;-74
2022/10/23 06:20:05;;;;;;;;;;;;;;;9.49;100.00;96402.38;5095636;28;19951;-74
2022/10/23 06:22:31;;;;;;;;;;;;;;;9.49;100.00;96407.63;5066429;28;19956;-74
2022/10/23 06:24:57;;;;;;;;;;;;;;;9.50;100.00;96401.34;5087349;28;19972;-74
2022/10/23 06:27:23;;;;;;;;;;;;;;;9.51;100.00;96408.22;5088750;28;19958;-74
2022/10/23 06:29:49;;;;;;;;;;;;;;;9.55;100.00;96400.72;5082251;28;20431;-74
2022/10/23 06:32:15;;;;;;;;;;;;;;;9.57;100.00;96398.69;5055778;28;19969;-74
2022/10/23 06:34:41;;;;;;;;;;;;;;;9.60;100.00;96394.88;5073695;28;19955;-74
2022/10/23 06:37:07;;;;;;;;;;;;;;;9.62;100.00;96398.88;5082907;28;20007;-73
2022/10/23 06:39:34;;;;;;;;;;;;;;;9.63;100.00;96400.47;5083906;28;20032;-74
2022/10/23 06:42:00;;;;;;;;;;;;;;;9.66;100.00;96399.22;5086929;28;19965;-74
2022/10/23 06:44:26;;;;;;;;;;;;;;;9.69;100.00;96398.81;5070628;28;19964;-74
2022/10/23 06:46:52;;;;;;;;;;;;;;;9.74;100.00;96406.81;5082363;28;20042;-74
2022/10/23 06:49:18;;;;;;;;;;;;;;;9.80;100.00;96399.94;5079178;28;20400;-74
2022/10/23 06:51:44;;;;;;;;;;;;;;;9.86;100.00;96407.75;5095194;28;19948;-73
2022/10/23 06:54:10;;;;;;;;;;;;;;;9.93;100.00;96411.13;5083853;28;20035;-74
2022/10/23 06:56:37;;;;;;;;;;;;;;;10.01;100.00;96402.16;5084752;28;19958;-73
2022/10/23 06:59:02;;;;;;;;;;;;;;;10.09;100.00;96407.13;5088195;28;19961;-74
2022/10/23 07:01:28;;;;;;;;;;;;;;;10.16;100.00;96415.75;5085238;28;19956;-74
2022/10/23 07:03:54;;;;;;;;;;;;;;;10.28;100.00;96409.78;5082904;28;19953;-74
2022/10/23 07:06:20;;;;;;;;;;;;;;;10.41;100.00;96412.31;5085145;28;20049;-74
2022/10/23 07:08:46;;;;;;;;;;;;;;;10.52;100.00;96398.50;5088960;28;19959;-74
2022/10/23 07:11:12;;;;;;;;;;;;;;;10.62;100.00;96394.56;5085632;28;20481;-75
2022/10/23 07:13:38;;;;;;;;;;;;;;;10.68;100.00;96402.34;5082556;28;19953;-74
2022/10/23 07:16:07;;;;;;;;;;;;;;;10.78;100.00;96399.22;5079417;28;20438;-74
2022/10/23 07:18:33;;;;;;;;;;;;;;;10.88;100.00;96398.69;5063856;28;20058;-74
2022/10/23 07:20:59;;;;;;;;;;;;;;;10.92;100.00;96405.13;5086778;28;19953;-73
2022/10/23 07:23:25;;;;;;;;;;;;;;;11.01;100.00;96419.53;5066816;28;19958;-74
2022/10/23 07:25:51;;;;;;;;;;;;;;;11.25;100.00;96409.13;5079188;28;19961;-73
2022/10/23 07:28:17;;;;;;;;;;;;;;;11.38;100.00;96408.94;5086684;28;19965;-74
2022/10/23 07:30:42;;;;;;;;;;;;;;;11.42;100.00;96404.81;5083361;28;19977;-74
2022/10/23 07:33:11;;;;;;;;;;;;;;;11.44;100.00;96402.78;5085206;28;20056;-74
2022/10/23 07:35:40;;;;;;;;;;;;;;;11.41;100.00;96408.50;5083453;28;19954;-74
2022/10/23 07:38:06;;;;;;;;;;;;;;;11.38;100.00;96409.75;5084112;28;19970;-74
2022/10/23 07:40:32;;;;;;;;;;;;;;;11.38;100.00;96394.00;5079095;28;19963;-74
2022/10/23 07:42:57;;;;;;;;;;;;;;;11.39;100.00;96389.53;5087095;28;19988;-74
2022/10/23 07:45:23;;;;;;;;;;;;;;;11.37;100.00;96391.59;5084739;28;20018;-74
2022/10/23 07:47:50;;;;;;;;;;;;;;;11.37;100.00;96389.75;5084875;28;19952;-74
2022/10/23 07:50:16;;;;;;;;;;;;;;;11.43;100.00;96401.19;5085011;28;19947;-74
2022/10/23 07:52:42;;;;;;;;;;;;;;;11.49;100.00;96402.13;5082869;28;19963;-73
2022/10/23 07:55:08;;;;;;;;;;;;;;;11.45;100.00;96388.66;5087574;28;19958;-74
2022/10/23 07:57:34;;;;;;;;;;;;;;;11.47;100.00;96385.81;5083682;28;20010;-73
2022/10/23 08:00:00;;;;;;;;;;;;;;;11.59;100.00;96378.75;5083827;28;19958;-74
2022/10/23 08:02:26;;;;;;;;;;;;;;;11.76;100.00;96374.44;5084017;28;19967;-74
2022/10/23 08:04:52;;;;;;;;;;;;;;;11.97;100.00;96377.56;5086537;28;19965;-73
2022/10/23 08:07:17;;;;;;;;;;;;;;;12.17;100.00;96380.63;5082048;28;19997;-74
2022/10/23 08:09:43;;;;;;;;;;;;;;;12.37;100.00;96372.41;5082954;28;20046;-74
2022/10/23 08:12:09;;;;;;;;;;;;;;;12.54;100.00;96366.44;5080757;28;19992;-74
2022/10/23 08:14:35;;;;;;;;;;;;;;;12.71;100.00;96380.44;5081575;28;19955;-74
2022/10/23 08:17:01;;;;;;;;;;;;;;;12.88;100.00;96361.31;5083621;28;19955;-74
2022/10/23 08:19:27;;;;;;;;;;;;;;;12.91;100.00;96361.63;5088459;28;19958;-73
2022/10/23 08:21:54;;;;;;;;;;;;;;;12.87;100.00;96360.50;5083849;28;20004;-74
2022/10/23 08:24:19;;;;;;;;;;;;;;;12.83;100.00;96354.13;5084254;28;19976;-74
2022/10/23 08:26:47;;;;;;;;;;;;;;;12.78;100.00;96359.28;5083502;28;19960;-74
2022/10/23 08:29:13;;;;;;;;;;;;;;;12.74;100.00;96366.03;5081518;28;19961;-74
2022/10/23 08:31:39;;;;;;;;;;;;;;;12.73;100.00;96370.50;5083212;28;19954;-74
2022/10/23 08:34:04;;;;;;;;;;;;;;;12.75;100.00;96363.16;5082526;28;20003;-74
2022/10/23 08:36:30;;;;;;;;;;;;;;;12.82;100.00;96362.25;5081938;28;19958;-74
2022/10/23 08:38:56;;;;;;;;;;;;;;;12.91;100.00;96351.09;5066625;28;19965;-73
2022/10/23 08:41:42;;;;;;;;;;;;;;;13.00;100.00;96341.00;5088620;28;19962;-74
2022/10/23 08:44:26;;;;;;;;;;;;;;;13.14;100.00;96349.41;5082374;28;19952;-74
2022/10/23 08:46:52;;;;;;;;;;;;;;;13.27;100.00;96354.41;5077731;28;19961;-74
2022/10/23 08:49:25;;;;;;;;;;;;;;;13.43;100.00;96344.13;5063496;28;19949;-74
2022/10/23 08:51:53;;;;;;;;;;;;;;;13.60;100.00;96340.47;5080934;28;19950;-74
2022/10/23 08:54:21;;;;;;;;;;;;;;;13.79;100.00;96345.50;5083836;28;19957;-73
2022/10/23 08:56:50;;;;;;;;;;;;;;;13.89;100.00;96337.75;5082313;28;19954;-73
2022/10/23 08:59:25;;;;;;;;;;;;;;;14.01;99.14;96342.94;5086582;28;19952;-74
2022/10/23 09:01:54;;;;;;;;;;;;;;;14.06;98.00;96342.22;5074325;28;20315;-74
2022/10/23 09:04:20;;;;;;;;;;;;;;;14.13;98.34;96346.28;5086293;28;19957;-74
2022/10/23 09:07:08;;;;;;;;;;;;;;;14.24;98.41;96346.38;5083151;28;19984;-74
2022/10/23 09:09:40;;;;;;;;;;;;;;;14.37;97.49;96338.16;5080267;28;19953;-74
2022/10/23 09:12:11;;;;;;;;;;;;;;;14.45;95.67;96329.81;5078604;28;19956;-74
2022/10/23 09:14:37;;;;;;;;;;;;;;;14.53;98.35;96347.84;5091682;28;20423;-74
2022/10/23 09:17:23;;;;;;;;;;;;;;;14.64;96.92;96334.81;5080238;28;19957;-74
2022/10/23 09:19:52;;;;;;;;;;;;;;;14.76;98.44;96346.84;5078456;28;19954;-74
2022/10/23 09:22:18;;;;;;;;;;;;;;;14.89;98.50;96339.56;5081129;28;19945;-74
2022/10/23 09:24:44;;;;;;;;;;;;;;;14.99;96.13;96334.38;5083578;28;20022;-74
2022/10/23 09:27:19;;;;;;;;;;;;;;;15.06;96.56;96316.53;5064571;28;20004;-74
2022/10/23 09:29:47;;;;;;;;;;;;;;;15.13;96.08;96308.38;5088843;28;19951;-74
2022/10/23 09:32:13;;;;;;;;;;;;;;;15.15;95.93;96303.66;5085158;28;19954;-74
2022/10/23 09:34:49;;;;;;;;;;;;;;;15.20;93.42;96290.47;5081123;28;20386;-75
2022/10/23 09:37:25;;;;;;;;;;;;;;;15.27;92.57;96277.88;5084052;28;19955;-74
2022/10/23 09:40:02;;;;;;;;;;;;;;;15.41;96.35;96294.09;5080825;28;19951;-74
2022/10/23 09:42:28;;;;;;;;;;;;;;;15.54;90.39;96269.91;5081204;28;20322;-74
2022/10/23 09:44:54;;;;;;;;;;;;;;;15.68;90.49;96282.66;5085904;28;19968;-74
2022/10/23 09:47:22;;;;;;;;;;;;;;;15.78;90.00;96278.28;5092295;28;20415;-74
2022/10/23 09:49:50;;;;;;;;;;;;;;;15.91;91.29;96290.25;5087432;28;20329;-74
2022/10/23 09:52:16;;;;;;;;;;;;;;;16.04;91.56;96294.28;5091140;28;19952;-74
2022/10/23 09:54:46;;;;;;;;;;;;;;;16.15;92.77;96300.47;5081941;28;19951;-75
2022/10/23 09:57:31;;;;;;;;;;;;;;;16.27;90.94;96287.78;5074534;28;19957;-74
2022/10/23 10:00:15;;;;;;;;;;;;;;;16.41;90.50;96298.72;5086403;28;19974;-74
2022/10/23 10:02:42;;;;;;;;;;;;;;;16.48;90.60;96307.19;5085759;28;19954;-75
2022/10/23 10:05:24;;;;;;;;;;;;;;;16.49;89.91;96308.81;5080072;28;19980;-75
2022/10/23 10:07:54;;;;;;;;;;;;;;;16.55;91.46;96322.88;5087015;28;19956;-75
2022/10/23 10:10:21;;;;;;;;;;;;;;;16.61;87.45;96284.78;5088386;28;19949;-75
2022/10/23 10:12:50;;;;;;;;;;;;;;;16.67;87.20;96281.06;5085630;28;19956;-75
2022/10/23 10:15:19;;;;;;;;;;;;;;;16.73;84.38;96258.84;5078507;28;19951;-75
2022/10/23 10:17:57;;;;;;;;;;;;;;;16.78;85.10;96263.38;5085317;28;19952;-75
2022/10/23 10:20:41;;;;;;;;;;;;;;;16.79;83.39;96249.84;5086778;28;19951;-75
2022/10/23 10:23:19;;;;;;;;;;;;;;;16.80;82.31;96245.38;5089328;28;20329;-75
2022/10/23 10:25:54;;;;;;;;;;;;;;;16.82;86.24;96259.97;5089652;28;19964;-74
2022/10/23 10:28:23;;;;;;;;;;;;;;;16.94;82.16;96224.47;5089238;28;19948;-75
2022/10/23 10:30:58;;;;;;;;;;;;;;;17.01;84.79;96256.81;5085357;28;19960;-75
2022/10/23 10:33:32;;;;;;;;;;;;;;;17.07;83.62;96239.84;5088389;28;20330;-74
2022/10/23 10:36:18;;;;;;;;;;;;;;;17.12;82.82;96228.47;5065957;28;20340;-73
2022/10/23 10:38:49;;;;;;;;;;;;;;;17.14;83.82;96239.59;5035127;28;19952;-73
2022/10/23 10:41:24;;;;;;;;;;;;;;;17.14;81.59;96236.94;5065989;28;19965;-74
2022/10/23 10:44:08;;;;;;;;;;;;;;;17.14;83.06;96235.09;5085236;28;20309;-74
2022/10/23 10:46:43;;;;;;;;;;;;;;;17.20;80.45;96226.09;5091949;28;19966;-74
2022/10/23 10:49:21;;;;;;;;;;;;;;;17.32;83.40;96248.88;5072303;28;19958;-74
2022/10/23 10:52:10;;;;;;;;;;;;;;;17.42;82.62;96236.41;5074357;28;20065;-74
2022/10/23 10:54:48;;;;;;;;;;;;;;;17.49;80.20;96217.59;5047969;28;19949;-74
2022/10/23 10:57:23;;;;;;;;;;;;;;;17.48;81.66;96218.63;5088086;28;19951;-74
2022/10/23 10:59:50;;;;;;;;;;;;;;;17.48;78.42;96183.38;5080927;28;19954;-74
2022/10/23 11:02:25;;;;;;;;;;;;;;;17.48;80.45;96196.66;5084914;28;19952;-74
2022/10/23 11:05:11;;;;;;;;;;;;;;;17.44;78.57;96183.91;5084531;28;20342;-75
2022/10/23 11:07:39;;;;;;;;;;;;;;;17.44;78.74;96188.41;5068697;28;19950;-74
2022/10/23 11:10:13;;;;;;;;;;;;;;;17.47;80.48;96195.03;5085274;28;20443;-74
2022/10/23 11:12:41;;;;;;;;;;;;;;;17.49;81.06;96188.44;5084179;28;19972;-74
2022/10/23 11:15:33;;;;;;;;;;;;;;;17.53;81.32;96202.72;5088637;28;20434;-74
2022/10/23 11:18:05;;;;;;;;;;;;;;;17.62;81.33;96206.41;5075122;28;19954;-75
2022/10/23 11:20:31;;;;;;;;;;;;;;;17.70;79.98;96188.38;5080382;28;19955;-74
2022/10/23 11:23:06;;;;;;;;;;;;;;;17.74;78.53;96184.91;5083674;28;20354;-74
2022/10/23 11:25:42;;;;;;;;;;;;;;;17.71;78.81;96172.19;5066667;28;19962;-73
2022/10/23 11:28:27;;;;;;;;;;;;;;;17.71;78.18;96176.72;5086861;28;19959;-74
2022/10/23 11:31:03;;;;;;;;;;;;;;;17.73;80.82;96180.66;5087655;28;19951;-74
2022/10/23 11:33:45;;;;;;;;;;;;;;;17.78;77.60;96163.94;5083677;28;20320;-74
2022/10/23 11:36:30;;;;;;;;;;;;;;;17.82;81.23;96179.06;5083440;28;19950;-74
2022/10/23 11:39:05;;;;;;;;;;;;;;;17.87;78.64;96156.25;5089086;28;19956;-74
2022/10/23 11:41:33;;;;;;;;;;;;;;;17.94;80.30;96168.16;5064768;28;19949;-74
2022/10/23 11:44:02;;;;;;;;;;;;;;;17.99;78.77;96148.78;5084106;28;19959;-73
2022/10/23 11:46:28;;;;;;;;;;;;;;;18.05;78.69;96150.34;5081983;28;20352;-74
2022/10/23 11:48:55;;;;;;;;;;;;;;;18.09;78.98;96151.38;5089420;28;20413;-73
2022/10/23 11:51:28;;;;;;;;;;;;;;;18.13;76.61;96133.06;5075670;28;19951;-74
2022/10/23 11:54:05;;;;;;;;;;;;;;;18.15;78.43;96137.03;5087761;28;19951;-73
2022/10/23 11:56:32;;;;;;;;;;;;;;;18.23;76.59;96133.00;5090965;28;19949;-74
2022/10/23 11:59:16;;;;;;;;;;;;;;;18.26;78.10;96135.09;5083551;28;19958;-73
2022/10/23 12:01:44;;;;;;;;;;;;;;;18.34;79.37;96147.00;5088505;28;19948;-74
2022/10/23 12:04:13;;;;;;;;;;;;;;;18.41;76.81;96134.22;5079972;28;20317;-74
2022/10/23 12:06:40;;;;;;;;;;;;;;;18.45;77.00;96121.97;5081540;28;19988;-74
2022/10/23 12:09:26;;;;;;;;;;;;;;;18.44;74.94;96113.22;5084274;28;19953;-74
2022/10/23 12:12:07;;;;;;;;;;;;;;;18.46;77.43;96128.88;5086843;28;20416;-74
2022/10/23 12:14:52;;;;;;;;;;;;;;;18.49;75.68;96115.03;5065157;28;19960;-73
2022/10/23 12:17:20;;;;;;;;;;;;;;;18.50;77.70;96137.06;5083363;28;19975;-74
2022/10/23 12:19:48;;;;;;;;;;;;;;;18.56;79.77;96146.59;5080121;28;19958;-73
2022/10/23 12:22:15;;;;;;;;;;;;;;;18.60;78.69;96134.34;5087641;28;20319;-74
2022/10/23 12:25:03;;;;;;;;;;;;;;;18.62;79.14;96129.56;5085510;28;19983;-75
2022/10/23 12:27:32;;;;;;;;;;;;;;;18.63;77.67;96126.63;5068861;28;19944;-74
2022/10/23 12:30:11;;;;;;;;;;;;;;;18.67;77.53;96114.38;5078412;28;19947;-74
2022/10/23 12:32:39;;;;;;;;;;;;;;;18.76;79.02;96127.88;5082730;28;20289;-74
2022/10/23 12:35:24;;;;;;;;;;;;;;;18.86;76.08;96089.84;5084073;28;19954;-74
2022/10/23 12:37:56;;;;;;;;;;;;;;;18.92;76.80;96093.22;5085131;28;20325;-74
2022/10/23 12:40:28;;;;;;;;;;;;;;;18.93;78.01;96106.22;5082517;28;19954;-74
2022/10/23 12:42:55;;;;;;;;;;;;;;;18.95;77.38;96079.38;5079877;28;19956;-74
2022/10/23 12:45:22;;;;;;;;;;;;;;;18.99;77.74;96077.75;5083648;28;19970;-73
2022/10/23 12:47:50;;;;;;;;;;;;;;;19.03;75.37;96050.34;5089642;28;19958;-75
2022/10/23 12:50:15;;;;;;;;;;;;;;;19.09;77.55;96042.28;5063897;28;20438;-73
2022/10/23 12:52:49;;;;;;;;;;;;;;;19.08;73.74;96003.53;5077074;28;19962;-74
2022/10/23 12:55:15;;;;;;;;;;;;;;;19.08;75.14;96022.91;5087572;28;19951;-74